Time;durP1;ratioP1;P1;durP2;ratioP2;P2;SDS_P1;SDS_P2;PMS_P1;PMS_P2;Temp;Humidity;BMP_temperature;BMP_pressure;BME280_temperature;BME280_humidity;BME280_pressure;Samples;Min_cycle;Max_cycle;Signal;HPM_P1;HPM_P2
2021/06/01 00:00:45;;;;;;;3.50;3.30;;;10.50;99.90;;;;;;5024591;28;20669;-89
2021/06/01 00:03:12;;;;;;;3.30;3.10;;;10.40;99.90;;;;;;5023895;28;20658;-89
2021/06/01 00:05:40;;;;;;;3.10;2.90;;;10.30;99.90;;;;;;5027205;28;20615;-89
2021/06/01 00:08:06;;;;;;;3.47;3.17;;;10.30;99.90;;;;;;5026738;28;20611;-90
2021/06/01 00:10:32;;;;;;;3.00;2.80;;;10.30;99.90;;;;;;5025690;28;20661;-91
2021/06/01 00:12:59;;;;;;;3.07;2.87;;;10.30;99.90;;;;;;5046385;28;20603;-92
2021/06/01 00:15:27;;;;;;;3.03;2.73;;;10.30;99.90;;;;;;5052401;28;20666;-91
2021/06/01 00:17:53;;;;;;;2.90;2.70;;;10.30;99.90;;;;;;5033499;28;20619;-91
2021/06/01 00:20:19;;;;;;;3.37;3.17;;;10.20;99.90;;;;;;5030599;28;20731;-91
2021/06/01 00:22:46;;;;;;;3.60;3.30;;;10.20;99.90;;;;;;5027589;28;20634;-90
2021/06/01 00:25:12;;;;;;;3.20;2.83;;;10.10;99.90;;;;;;5027276;28;20650;-89
2021/06/01 00:27:39;;;;;;;3.70;3.40;;;10.10;99.90;;;;;;5027775;28;20817;-88
2021/06/01 00:30:07;;;;;;;5.20;3.20;;;10.10;99.90;;;;;;5022734;28;21140;-89
2021/06/01 00:32:36;;;;;;;3.70;3.40;;;10.10;99.90;;;;;;5026155;28;21020;-90
2021/06/01 00:35:03;;;;;;;3.30;3.00;;;10.00;99.90;;;;;;5025748;28;20650;-89
2021/06/01 00:37:29;;;;;;;4.00;3.70;;;9.90;99.90;;;;;;5024979;28;21065;-89
2021/06/01 00:39:55;;;;;;;4.17;3.87;;;9.90;99.90;;;;;;5025906;28;20646;-88
2021/06/01 00:42:21;;;;;;;3.73;3.43;;;9.90;99.90;;;;;;5027906;28;20619;-89
2021/06/01 00:44:50;;;;;;;4.70;4.40;;;9.80;99.90;;;;;;5024775;28;21232;-89
2021/06/01 00:47:17;;;;;;;3.63;3.40;;;9.80;99.90;;;;;;5028552;28;20642;-88
2021/06/01 00:49:45;;;;;;;3.60;3.30;;;9.70;99.90;;;;;;5026043;28;20646;-89
2021/06/01 00:52:13;;;;;;;3.47;3.27;;;9.70;99.90;;;;;;5025391;28;20637;-89
2021/06/01 00:54:40;;;;;;;3.33;3.13;;;9.80;99.90;;;;;;5026918;28;20674;-90
2021/06/01 00:57:07;;;;;;;3.70;3.40;;;9.70;99.90;;;;;;5023704;28;20613;-90
2021/06/01 00:59:34;;;;;;;3.13;2.93;;;9.70;99.90;;;;;;5024785;28;20756;-90
2021/06/01 01:02:01;;;;;;;3.50;3.30;;;9.70;99.90;;;;;;5023312;28;20969;-89
2021/06/01 01:04:32;;;;;;;3.87;3.60;;;9.60;99.90;;;;;;5028606;28;20663;-89
2021/06/01 01:07:15;;;;;;;3.67;3.37;;;9.60;99.90;;;;;;5026132;28;20618;-90
2021/06/01 01:09:43;;;;;;;3.90;3.40;;;9.60;99.90;;;;;;5023501;28;20654;-89
2021/06/01 01:12:14;;;;;;;3.90;3.20;;;9.60;99.90;;;;;;5025244;28;21103;-90
2021/06/01 01:14:46;;;;;;;3.90;3.50;;;9.60;99.90;;;;;;5026260;28;20647;-91
2021/06/01 01:17:17;;;;;;;3.77;3.50;;;9.50;99.90;;;;;;5024157;28;20614;-91
2021/06/01 01:20:08;;;;;;;4.47;4.17;;;9.50;99.90;;;;;;5022826;28;20657;-90
2021/06/01 01:22:39;;;;;;;4.70;4.40;;;9.50;99.90;;;;;;5025896;28;21165;-90
2021/06/01 01:25:13;;;;;;;3.97;3.63;;;9.40;99.90;;;;;;5022108;28;20638;-90
2021/06/01 01:27:53;;;;;;;4.70;4.30;;;9.40;99.90;;;;;;5024300;28;20626;-90
2021/06/01 01:30:21;;;;;;;5.40;4.93;;;9.40;99.90;;;;;;5025328;28;20731;-89
2021/06/01 01:32:56;;;;;;;4.93;4.53;;;9.40;99.90;;;;;;5024196;28;20626;-90
2021/06/01 01:35:25;;;;;;;4.57;4.27;;;9.40;99.90;;;;;;5024108;28;20651;-91
2021/06/01 01:37:53;;;;;;;4.47;4.17;;;9.30;99.90;;;;;;5025326;28;20643;-90
2021/06/01 01:40:23;;;;;;;4.33;4.03;;;9.30;99.90;;;;;;5025948;28;20662;-90
2021/06/01 01:42:53;;;;;;;4.37;3.97;;;9.20;99.90;;;;;;5025237;28;20633;-89
2021/06/01 01:45:25;;;;;;;5.23;4.67;;;9.10;99.90;;;;;;5022591;28;20651;-89
2021/06/01 01:50:44;;;;;;;5.67;5.17;;;9.10;99.90;;;;;;5047207;28;20658;-91
2021/06/01 01:53:13;;;;;;;4.97;4.67;;;9.10;99.90;;;;;;5044688;28;20634;-90
2021/06/01 01:55:41;;;;;;;5.03;4.63;;;9.10;99.90;;;;;;5046348;28;20715;-89
2021/06/01 01:58:07;;;;;;;5.23;4.83;;;9.00;99.90;;;;;;5048421;28;20751;-88
2021/06/01 02:00:34;;;;;;;5.23;4.93;;;9.00;99.90;;;;;;5033959;28;20639;-89
2021/06/01 02:03:01;;;;;;;5.00;4.50;;;9.00;99.90;;;;;;5026333;28;20945;-90
2021/06/01 02:05:28;;;;;;;4.80;4.30;;;9.00;99.90;;;;;;5032263;28;20702;-93
2021/06/01 02:08:00;;;;;;;5.37;4.17;;;8.90;99.90;;;;;;5033031;28;20627;-88
2021/06/01 02:10:26;;;;;;;5.07;4.77;;;8.80;99.90;;;;;;5023315;28;20672;-88
2021/06/01 02:12:53;;;;;;;4.87;4.47;;;8.80;99.90;;;;;;5029220;28;20665;-89
2021/06/01 02:15:20;;;;;;;5.13;4.73;;;8.80;99.90;;;;;;5026034;28;20666;-88
2021/06/01 02:17:46;;;;;;;6.03;5.40;;;8.70;99.90;;;;;;5023329;28;20693;-88
2021/06/01 02:20:22;;;;;;;5.57;5.17;;;8.70;99.90;;;;;;5023982;28;20669;-87
2021/06/01 02:25:48;;;;;;;5.63;5.13;;;8.80;99.90;;;;;;4986671;28;20681;-88
2021/06/01 02:28:18;;;;;;;4.27;4.03;;;8.70;99.90;;;;;;5019741;28;21019;-88
2021/06/01 02:30:52;;;;;;;5.23;4.73;;;8.60;99.90;;;;;;5019701;28;20759;-89
2021/06/01 02:33:21;;;;;;;5.00;4.50;;;8.60;99.90;;;;;;5022401;28;20623;-88
2021/06/01 02:35:48;;;;;;;5.30;4.90;;;8.60;99.90;;;;;;5024329;28;20663;-87
2021/06/01 02:38:15;;;;;;;5.90;5.17;;;8.70;99.90;;;;;;5026950;28;20624;-89
2021/06/01 02:40:45;;;;;;;5.50;5.10;;;8.60;99.90;;;;;;5026128;28;20647;-89
2021/06/01 02:43:13;;;;;;;4.80;4.40;;;8.50;99.90;;;;;;5027210;28;20738;-89
2021/06/01 02:45:41;;;;;;;5.10;4.70;;;8.60;99.90;;;;;;5022590;28;20636;-86
2021/06/01 02:48:10;;;;;;;5.97;5.50;;;8.50;99.90;;;;;;5018257;28;20635;-87
2021/06/01 02:50:36;;;;;;;5.27;4.87;;;8.50;99.90;;;;;;5019199;28;20653;-87
2021/06/01 02:53:06;;;;;;;7.43;5.00;;;8.40;99.90;;;;;;5020539;28;20975;-88
2021/06/01 02:55:33;;;;;;;5.50;5.10;;;8.40;99.90;;;;;;5025087;28;20663;-89
2021/06/01 02:58:02;;;;;;;5.70;5.30;;;8.30;99.90;;;;;;5024778;28;20639;-90
2021/06/01 03:00:28;;;;;;;5.80;5.30;;;8.30;99.90;;;;;;5024206;28;20737;-89
2021/06/01 03:02:55;;;;;;;5.80;5.33;;;8.30;99.90;;;;;;5026056;28;20743;-89
2021/06/01 03:05:29;;;;;;;5.20;4.80;;;8.30;99.90;;;;;;5029511;28;20623;-89
2021/06/01 03:07:57;;;;;;;5.03;4.63;;;8.30;99.90;;;;;;5025308;28;20599;-90
2021/06/01 03:10:24;;;;;;;5.07;4.70;;;8.20;99.90;;;;;;5024307;28;20655;-89
2021/06/01 03:12:56;;;;;;;4.87;4.37;;;8.20;99.90;;;;;;5024210;28;22292;-89
2021/06/01 03:15:24;;;;;;;5.23;4.73;;;8.10;99.90;;;;;;5027772;28;21117;-89
2021/06/01 03:17:50;;;;;;;6.23;5.00;;;8.10;99.90;;;;;;5023902;28;20631;-91
2021/06/01 03:20:17;;;;;;;6.33;5.70;;;8.10;99.90;;;;;;5019809;28;20643;-91
2021/06/01 03:22:43;;;;;;;5.20;4.80;;;8.10;99.90;;;;;;5027172;28;20731;-91
2021/06/01 03:25:11;;;;;;;5.40;5.00;;;8.00;99.90;;;;;;5018854;28;20629;-90
2021/06/01 03:27:37;;;;;;;5.17;4.80;;;8.10;99.90;;;;;;5020787;28;20661;-88
2021/06/01 03:30:05;;;;;;;5.00;4.70;;;8.00;99.90;;;;;;5022109;28;20666;-89
2021/06/01 03:32:33;;;;;;;5.40;4.90;;;8.10;99.90;;;;;;5021270;28;20677;-89
2021/06/01 03:34:59;;;;;;;5.40;5.00;;;8.00;99.90;;;;;;5022878;28;20708;-88
2021/06/01 03:37:25;;;;;;;4.93;4.63;;;8.00;99.90;;;;;;5022181;28;20618;-89
2021/06/01 03:39:52;;;;;;;5.00;4.60;;;8.00;99.90;;;;;;5026088;28;20654;-89
2021/06/01 03:42:19;;;;;;;5.53;5.00;;;8.10;99.90;;;;;;5026000;28;20637;-87
2021/06/01 03:44:45;;;;;;;6.00;5.30;;;8.10;99.90;;;;;;5024233;28;20694;-89
2021/06/01 03:47:12;;;;;;;5.53;5.13;;;8.00;99.90;;;;;;5025286;28;20630;-88
2021/06/01 03:49:39;;;;;;;4.80;4.50;;;8.10;99.90;;;;;;5023793;28;20761;-88
2021/06/01 03:52:08;;;;;;;6.03;5.63;;;8.10;99.90;;;;;;5025289;28;20622;-88
2021/06/01 03:54:35;;;;;;;7.07;5.50;;;8.10;99.90;;;;;;5026269;28;20641;-88
2021/06/01 03:57:02;;;;;;;6.60;6.20;;;8.10;99.90;;;;;;5027856;28;20968;-87
2021/06/01 03:59:29;;;;;;;6.43;5.60;;;8.00;99.90;;;;;;5028299;28;20653;-91
2021/06/01 04:01:56;;;;;;;5.67;5.27;;;8.10;99.90;;;;;;5025445;28;20627;-89
2021/06/01 04:04:22;;;;;;;5.80;5.40;;;8.00;99.90;;;;;;5027123;28;20631;-90
2021/06/01 04:06:50;;;;;;;6.30;5.90;;;8.10;99.90;;;;;;5028109;28;20626;-89
2021/06/01 04:09:16;;;;;;;5.47;5.10;;;8.10;99.90;;;;;;5030802;28;21061;-90
2021/06/01 04:11:43;;;;;;;6.97;6.40;;;8.10;99.90;;;;;;5029945;28;20710;-87
2021/06/01 04:14:09;;;;;;;5.43;5.07;;;8.20;99.90;;;;;;5028786;28;21241;-90
2021/06/01 04:16:37;;;;;;;5.93;5.53;;;8.20;99.90;;;;;;5040162;28;20675;-90
2021/06/01 04:19:05;;;;;;;5.80;5.40;;;8.20;99.90;;;;;;5028959;28;20732;-90
2021/06/01 04:21:31;;;;;;;5.90;5.50;;;8.20;99.90;;;;;;5029017;28;20688;-90
2021/06/01 04:24:03;;;;;;;6.90;6.30;;;8.30;99.90;;;;;;5029234;28;20638;-91
2021/06/01 04:26:29;;;;;;;5.70;5.30;;;8.40;99.90;;;;;;5026828;28;20642;-90
2021/06/01 04:28:56;;;;;;;5.57;5.03;;;8.40;99.90;;;;;;5027540;28;21295;-91
2021/06/01 04:31:23;;;;;;;5.77;5.37;;;8.40;99.90;;;;;;5030516;28;21476;-91
2021/06/01 04:33:49;;;;;;;6.03;5.50;;;8.40;99.90;;;;;;5029178;28;20631;-90
2021/06/01 04:36:16;;;;;;;5.23;4.77;;;8.50;99.90;;;;;;5029652;28;20685;-92
2021/06/01 04:38:46;;;;;;;6.30;5.90;;;8.60;99.90;;;;;;5027051;28;20622;-90
2021/06/01 04:41:16;;;;;;;6.00;5.50;;;8.60;99.90;;;;;;5031452;28;20583;-92
2021/06/01 04:43:43;;;;;;;6.27;5.77;;;8.70;99.90;;;;;;5029802;28;20637;-90
2021/06/01 04:46:10;;;;;;;6.40;5.90;;;8.70;99.90;;;;;;5032523;28;20992;-89
2021/06/01 04:48:36;;;;;;;5.93;5.53;;;8.80;99.90;;;;;;5030036;28;20639;-90
2021/06/01 04:51:03;;;;;;;8.03;5.87;;;8.90;99.90;;;;;;5029738;28;20642;-91
2021/06/01 04:53:31;;;;;;;5.57;5.17;;;9.00;99.90;;;;;;5024894;28;20633;-90
2021/06/01 04:55:59;;;;;;;6.93;6.33;;;9.10;99.90;;;;;;5031248;28;20670;-90
2021/06/01 04:58:28;;;;;;;7.47;6.70;;;9.30;99.90;;;;;;5024930;28;20644;-90
2021/06/01 05:00:54;;;;;;;6.50;5.10;;;9.40;99.90;;;;;;5025912;28;20663;-91
2021/06/01 05:03:22;;;;;;;8.50;5.93;;;9.50;99.90;;;;;;5025798;28;21040;-91
2021/06/01 05:05:48;;;;;;;7.57;6.97;;;9.60;99.90;;;;;;5024866;28;20705;-90
2021/06/01 05:08:15;;;;;;;7.43;6.77;;;9.70;99.90;;;;;;5027455;28;21302;-88
2021/06/01 05:10:41;;;;;;;8.63;7.30;;;9.80;99.90;;;;;;5026402;28;20643;-88
2021/06/01 05:13:09;;;;;;;8.17;7.57;;;10.00;99.90;;;;;;5023197;28;20583;-89
2021/06/01 05:15:37;;;;;;;8.80;8.10;;;10.10;99.90;;;;;;5025343;28;20683;-89
2021/06/01 05:18:04;;;;;;;7.17;6.57;;;10.20;99.90;;;;;;5028416;28;20642;-92
2021/06/01 05:20:30;;;;;;;6.60;6.10;;;10.30;99.90;;;;;;5026163;28;20627;-91
2021/06/01 05:22:59;;;;;;;9.50;5.90;;;10.40;99.90;;;;;;5022123;28;20633;-92
2021/06/01 05:25:45;;;;;;;6.10;5.70;;;10.50;99.90;;;;;;5051690;28;20674;-90
2021/06/01 05:28:14;;;;;;;6.80;6.20;;;10.70;99.90;;;;;;5050103;28;20636;-90
2021/06/01 05:30:48;;;;;;;6.07;5.57;;;10.90;99.90;;;;;;5050874;28;20607;-90
2021/06/01 05:33:17;;;;;;;6.67;6.27;;;11.00;99.90;;;;;;5049779;28;20589;-91
2021/06/01 05:35:51;;;;;;;6.53;6.07;;;11.10;99.90;;;;;;5044682;28;20686;-91
2021/06/01 05:38:18;;;;;;;5.90;5.50;;;11.30;99.90;;;;;;5045520;28;20669;-91
2021/06/01 05:40:44;;;;;;;5.37;4.97;;;11.40;99.90;;;;;;5028128;28;20614;-92
2021/06/01 05:43:11;;;;;;;5.40;5.10;;;11.60;99.90;;;;;;5034225;28;20610;-92
2021/06/01 05:45:37;;;;;;;6.40;5.90;;;11.70;99.90;;;;;;5030271;28;20661;-90
2021/06/01 05:48:06;;;;;;;5.40;5.00;;;11.80;99.90;;;;;;5025565;28;20685;-90
2021/06/01 05:50:36;;;;;;;7.63;6.93;;;11.80;99.90;;;;;;5023815;28;20689;-89
2021/06/01 05:53:05;;;;;;;5.37;4.97;;;12.00;99.90;;;;;;5023576;28;20615;-88
2021/06/01 05:55:32;;;;;;;5.90;5.50;;;12.20;99.90;;;;;;5027724;28;20686;-90
2021/06/01 05:57:59;;;;;;;5.80;5.30;;;12.40;99.90;;;;;;5020727;28;20614;-88
2021/06/01 06:00:29;;;;;;;6.30;5.80;;;12.50;99.90;;;;;;5018963;28;20788;-89
2021/06/01 06:02:55;;;;;;;5.83;5.33;;;12.60;99.90;;;;;;5027209;28;21217;-89
2021/06/01 06:05:24;;;;;;;6.47;5.47;;;12.70;99.90;;;;;;5023537;28;20667;-89
2021/06/01 06:07:52;;;;;;;6.47;5.57;;;12.80;99.90;;;;;;5027019;28;21255;-89
2021/06/01 06:10:19;;;;;;;7.33;5.27;;;13.00;99.90;;;;;;5023635;28;20627;-90
2021/06/01 06:12:46;;;;;;;7.20;5.30;;;13.20;99.90;;;;;;5025865;28;20669;-91
2021/06/01 06:15:16;;;;;;;6.30;4.90;;;13.30;99.90;;;;;;5023205;28;20784;-88
2021/06/01 06:17:52;;;;;;;5.50;4.93;;;13.40;99.90;;;;;;5022312;28;20769;-87
2021/06/01 06:20:18;;;;;;;5.23;4.73;;;13.50;99.90;;;;;;5025062;28;20680;-88
2021/06/01 06:22:46;;;;;;;6.00;4.67;;;13.70;99.90;;;;;;5021101;28;20623;-87
2021/06/01 06:25:14;;;;;;;4.57;4.27;;;13.90;99.90;;;;;;5024710;28;20651;-88
2021/06/01 06:27:41;;;;;;;5.57;5.07;;;14.00;99.90;;;;;;5021731;28;20642;-87
2021/06/01 06:30:10;;;;;;;4.80;4.43;;;14.10;99.90;;;;;;5024114;28;20660;-89
2021/06/01 06:32:37;;;;;;;4.80;4.30;;;14.30;99.90;;;;;;5018385;28;20706;-87
2021/06/01 06:35:04;;;;;;;3.93;3.63;;;14.50;99.90;;;;;;5021397;28;20709;-88
2021/06/01 06:37:31;;;;;;;5.40;3.83;;;14.70;99.90;;;;;;5018993;28;20630;-88
2021/06/01 06:39:59;;;;;;;4.03;3.73;;;14.90;99.90;;;;;;5018771;28;20675;-88
2021/06/01 06:42:25;;;;;;;5.80;4.40;;;15.00;99.60;;;;;;5020462;28;20693;-88
2021/06/01 06:44:53;;;;;;;4.57;4.07;;;15.20;99.90;;;;;;5021547;28;20650;-88
2021/06/01 06:47:29;;;;;;;4.70;3.60;;;15.30;99.50;;;;;;5022304;28;20658;-88
2021/06/01 06:49:56;;;;;;;3.47;3.17;;;15.50;99.10;;;;;;5021161;28;20626;-88
2021/06/01 06:52:24;;;;;;;2.80;2.53;;;15.70;99.20;;;;;;5021444;28;20638;-89
2021/06/01 06:54:50;;;;;;;4.03;3.60;;;16.00;97.50;;;;;;5021643;28;21693;-89
2021/06/01 06:57:20;;;;;;;4.07;3.40;;;16.10;96.70;;;;;;5022913;28;21063;-88
2021/06/01 06:59:46;;;;;;;5.00;4.60;;;16.40;96.90;;;;;;5023108;28;20631;-88
2021/06/01 07:02:12;;;;;;;4.07;3.70;;;16.30;98.20;;;;;;5021312;28;21170;-89
2021/06/01 07:04:39;;;;;;;4.47;3.90;;;16.30;97.10;;;;;;5015668;28;20651;-90
2021/06/01 07:07:06;;;;;;;3.53;3.30;;;16.50;96.70;;;;;;5018685;28;20622;-89
2021/06/01 07:09:37;;;;;;;3.37;3.00;;;16.70;96.90;;;;;;5019781;28;20634;-90
2021/06/01 07:12:06;;;;;;;3.10;2.80;;;16.90;96.30;;;;;;5022803;28;20724;-90
2021/06/01 07:14:44;;;;;;;3.40;3.10;;;17.10;93.10;;;;;;5020918;28;20623;-89
2021/06/01 07:17:11;;;;;;;3.50;2.70;;;17.20;93.90;;;;;;5022467;28;21034;-90
2021/06/01 07:19:38;;;;;;;2.97;2.60;;;17.30;93.40;;;;;;5025618;28;20648;-88
2021/06/01 07:22:05;;;;;;;2.97;2.50;;;17.40;93.20;;;;;;5025984;28;20653;-89
2021/06/01 07:24:32;;;;;;;2.43;2.23;;;17.70;93.20;;;;;;5021836;28;20634;-90
2021/06/01 07:27:02;;;;;;;2.87;2.30;;;17.80;91.10;;;;;;5019966;28;20635;-89
2021/06/01 07:29:29;;;;;;;2.60;2.40;;;17.90;91.40;;;;;;5020995;28;20653;-90
2021/06/01 07:31:57;;;;;;;2.90;2.70;;;18.00;88.20;;;;;;5024008;28;20602;-88
2021/06/01 07:34:24;;;;;;;2.80;2.60;;;18.00;87.10;;;;;;5023494;28;20730;-88
2021/06/01 07:36:55;;;;;;;2.60;2.40;;;18.00;88.60;;;;;;5022856;28;20721;-87
2021/06/01 07:39:22;;;;;;;2.67;2.47;;;18.10;87.90;;;;;;5024027;28;21122;-89
2021/06/01 07:41:48;;;;;;;2.47;2.00;;;18.30;87.10;;;;;;5024985;28;20627;-89
2021/06/01 07:44:15;;;;;;;4.80;2.10;;;18.40;85.60;;;;;;5021374;28;20632;-88
2021/06/01 07:46:42;;;;;;;2.90;2.60;;;18.40;84.40;;;;;;5022205;28;20991;-89
2021/06/01 07:49:10;;;;;;;4.57;1.80;;;18.50;84.40;;;;;;5020791;28;21021;-88
2021/06/01 07:51:36;;;;;;;2.30;2.10;;;18.60;83.90;;;;;;5019158;28;20627;-89
2021/06/01 07:54:04;;;;;;;2.80;2.40;;;18.70;82.20;;;;;;5023349;28;20742;-89
2021/06/01 07:56:31;;;;;;;1.90;1.80;;;18.70;82.90;;;;;;5019569;28;20671;-89
2021/06/01 07:58:58;;;;;;;2.53;2.33;;;18.80;83.00;;;;;;5018893;28;20774;-90
2021/06/01 08:01:24;;;;;;;3.93;2.67;;;18.80;81.70;;;;;;5023012;28;20661;-89
2021/06/01 08:03:51;;;;;;;6.90;2.67;;;18.90;83.60;;;;;;5020406;28;20622;-88
2021/06/01 08:06:18;;;;;;;3.03;2.37;;;19.00;81.90;;;;;;5023387;28;21216;-89
2021/06/01 08:08:45;;;;;;;2.60;2.03;;;19.00;80.80;;;;;;5021176;28;20635;-90
2021/06/01 08:11:11;;;;;;;2.03;1.93;;;19.20;79.50;;;;;;5022331;28;20650;-89
2021/06/01 08:13:37;;;;;;;2.10;2.00;;;19.20;80.30;;;;;;5020065;28;20638;-90
2021/06/01 08:16:04;;;;;;;3.90;2.40;;;19.40;81.20;;;;;;5021439;28;20670;-88
2021/06/01 08:18:34;;;;;;;3.33;2.00;;;19.50;80.30;;;;;;5019469;28;20623;-88
2021/06/01 08:21:06;;;;;;;2.77;2.57;;;19.50;80.50;;;;;;5019470;28;20753;-89
2021/06/01 08:23:36;;;;;;;2.10;2.00;;;19.40;79.20;;;;;;5016630;28;20623;-89
2021/06/01 08:26:03;;;;;;;2.30;2.10;;;19.30;76.50;;;;;;5025285;28;20626;-89
2021/06/01 08:28:30;;;;;;;2.70;1.83;;;19.50;75.60;;;;;;5025519;28;20631;-89
2021/06/01 08:30:56;;;;;;;2.20;2.00;;;19.60;73.50;;;;;;5027698;28;21324;-88
2021/06/01 08:33:23;;;;;;;2.40;2.30;;;19.60;74.30;;;;;;5026892;28;20634;-89
2021/06/01 08:35:50;;;;;;;3.53;1.83;;;19.80;75.40;;;;;;5027413;28;20712;-92
2021/06/01 08:38:17;;;;;;;2.23;2.00;;;19.90;72.50;;;;;;5021422;28;20705;-89
2021/06/01 08:40:50;;;;;;;2.13;2.03;;;20.00;72.50;;;;;;5030903;28;20696;-89
2021/06/01 08:43:22;;;;;;;4.33;2.40;;;19.80;72.70;;;;;;5028695;28;20629;-90
2021/06/01 08:45:54;;;;;;;3.03;2.10;;;19.60;70.90;;;;;;5027525;28;20706;-87
2021/06/01 08:48:21;;;;;;;6.23;1.87;;;19.90;70.20;;;;;;5026915;28;20641;-91
2021/06/01 08:50:50;;;;;;;2.77;2.10;;;19.80;69.20;;;;;;5028736;28;20647;-89
2021/06/01 08:53:18;;;;;;;3.00;1.70;;;20.20;71.20;;;;;;5029406;28;21255;-90
2021/06/01 08:55:48;;;;;;;2.60;1.90;;;20.20;69.40;;;;;;5030496;28;20729;-90
2021/06/01 08:58:17;;;;;;;2.30;2.10;;;20.30;70.40;;;;;;5034058;28;20617;-88
2021/06/01 09:00:46;;;;;;;8.80;2.53;;;20.40;71.20;;;;;;5026973;28;20723;-89
2021/06/01 09:03:14;;;;;;;2.73;2.33;;;20.70;71.10;;;;;;5035677;28;20618;-90
2021/06/01 09:06:03;;;;;;;2.30;1.93;;;20.60;69.50;;;;;;5045405;28;20658;-90
2021/06/01 09:22:39;;;;;;;3.30;2.20;;;20.90;66.10;;;;;;5026254;28;20639;-89
2021/06/01 09:25:08;;;;;;;3.20;2.30;;;21.50;67.70;;;;;;5031580;28;20630;-89
2021/06/01 09:27:48;;;;;;;2.47;2.27;;;21.60;64.90;;;;;;5029492;28;20627;-89
2021/06/01 09:30:34;;;;;;;3.47;2.13;;;21.50;63.70;;;;;;5028690;28;20655;-89
2021/06/01 09:33:00;;;;;;;3.00;2.10;;;21.70;64.80;;;;;;5027739;28;20626;-90
2021/06/01 09:35:46;;;;;;;2.20;2.10;;;21.80;65.00;;;;;;5023819;28;20630;-89
2021/06/01 09:38:15;;;;;;;2.00;1.90;;;21.80;62.40;;;;;;5026149;28;20661;-89
2021/06/01 09:40:42;;;;;;;2.50;2.30;;;21.90;61.10;;;;;;5024055;28;20647;-91
2021/06/01 09:43:13;;;;;;;2.70;1.83;;;22.00;61.40;;;;;;5026534;28;20619;-90
2021/06/01 09:45:40;;;;;;;4.43;2.30;;;22.00;62.80;;;;;;5022101;28;20643;-91
2021/06/01 09:48:08;;;;;;;2.27;2.07;;;22.20;62.60;;;;;;5023429;28;21182;-89
2021/06/01 09:50:43;;;;;;;2.30;2.10;;;22.20;62.00;;;;;;5021618;28;20672;-90
2021/06/01 09:53:11;;;;;;;3.03;2.43;;;22.00;61.70;;;;;;5021282;28;20653;-89
2021/06/01 09:55:44;;;;;;;4.73;2.77;;;21.70;61.10;;;;;;5027728;28;20770;-90
2021/06/01 09:58:15;;;;;;;3.90;2.60;;;21.60;62.30;;;;;;5022320;28;20658;-89
2021/06/01 10:00:44;;;;;;;1.97;1.87;;;21.80;62.60;;;;;;5018274;28;20635;-89
2021/06/01 10:03:17;;;;;;;1.97;1.73;;;22.00;60.90;;;;;;5023192;28;20631;-90
2021/06/01 10:05:45;;;;;;;2.50;2.30;;;22.00;60.70;;;;;;5024429;28;20638;-89
2021/06/01 10:08:14;;;;;;;2.00;1.90;;;21.80;61.30;;;;;;5023048;28;20665;-90
2021/06/01 10:10:42;;;;;;;2.07;1.93;;;21.70;61.20;;;;;;5021072;28;21167;-89
2021/06/01 10:13:10;;;;;;;2.20;2.00;;;22.00;62.50;;;;;;5016402;28;21124;-89
2021/06/01 10:15:38;;;;;;;5.43;2.20;;;22.50;60.00;;;;;;5022458;28;20629;-91
2021/06/01 10:18:06;;;;;;;2.80;1.90;;;22.60;59.80;;;;;;5016605;28;20655;-89
2021/06/01 10:20:35;;;;;;;2.17;2.03;;;22.40;59.40;;;;;;5018099;28;20662;-90
2021/06/01 10:23:08;;;;;;;3.10;2.80;;;23.10;60.20;;;;;;5020011;28;20627;-89
2021/06/01 10:25:35;;;;;;;2.33;2.13;;;22.80;59.80;;;;;;5022707;28;20626;-89
2021/06/01 10:28:03;;;;;;;2.80;2.00;;;23.40;59.90;;;;;;5027105;28;21015;-89
2021/06/01 10:30:32;;;;;;;3.10;2.53;;;22.90;58.20;;;;;;5020757;28;21045;-88
2021/06/01 10:33:01;;;;;;;3.90;2.13;;;23.00;58.90;;;;;;5021534;28;20983;-90
2021/06/01 10:35:32;;;;;;;6.90;2.57;;;23.00;58.50;;;;;;5020105;28;21284;-88
2021/06/01 10:50:01;;;;;;;2.07;1.97;;;23.60;54.40;;;;;;5020673;28;20618;-90
2021/06/01 10:52:28;;;;;;;3.47;2.10;;;24.20;52.90;;;;;;5019023;28;20643;-91
2021/06/01 10:55:07;;;;;;;7.83;2.30;;;25.70;52.30;;;;;;5024583;28;21481;-90
2021/06/01 10:57:56;;;;;;;2.33;2.23;;;24.40;51.70;;;;;;5022096;28;20675;-89
2021/06/01 11:03:11;;;;;;;2.90;2.03;;;23.60;52.10;;;;;;5018532;28;20586;-87
2021/06/01 11:06:05;;;;;;;2.00;1.90;;;24.10;53.70;;;;;;5020525;28;20678;-88
2021/06/01 11:08:43;;;;;;;2.47;2.17;;;24.50;53.80;;;;;;5020026;28;20677;-88
2021/06/01 11:11:27;;;;;;;2.30;2.10;;;24.30;51.40;;;;;;5022339;28;20635;-88
2021/06/01 11:13:54;;;;;;;3.00;2.00;;;24.60;51.60;;;;;;5021814;28;20618;-88
2021/06/01 11:16:21;;;;;;;2.07;1.87;;;24.90;51.10;;;;;;5020987;28;20682;-88
2021/06/01 11:18:57;;;;;;;2.23;2.03;;;24.70;51.20;;;;;;5021988;28;20642;-89
2021/06/01 11:21:37;;;;;;;2.60;2.10;;;24.80;49.20;;;;;;5018809;28;20994;-88
2021/06/01 11:33:15;;;;;;;2.43;2.23;;;25.60;51.00;;;;;;5021507;28;20571;-90
2021/06/01 11:35:44;;;;;;;2.27;2.10;;;25.60;49.30;;;;;;5020840;28;20610;-90
2021/06/01 11:38:18;;;;;;;3.23;2.03;;;25.80;48.80;;;;;;5022389;28;21016;-90
2021/06/01 11:43:34;;;;;;;2.20;2.10;;;25.80;50.40;;;;;;5012368;28;20615;-91
2021/06/01 11:46:11;;;;;;;3.53;2.10;;;26.00;48.60;;;;;;5017561;28;20672;-89
2021/06/01 11:51:30;;;;;;;2.90;2.70;;;26.20;48.40;;;;;;5019515;28;20599;-89
2021/06/01 11:54:00;;;;;;;2.20;2.10;;;26.30;49.00;;;;;;5020646;28;21260;-87
2021/06/01 11:56:49;;;;;;;2.10;2.00;;;26.20;49.00;;;;;;5018326;28;20689;-87
2021/06/01 12:02:19;;;;;;;2.97;2.67;;;26.60;46.50;;;;;;5023693;28;20761;-87
2021/06/01 12:13:43;;;;;;;3.07;2.77;;;28.10;47.20;;;;;;5021429;28;20622;-87
2021/06/01 12:18:57;;;;;;;4.10;2.20;;;28.30;47.00;;;;;;5023863;28;20641;-88
2021/06/01 12:21:29;;;;;;;2.50;2.30;;;28.00;44.00;;;;;;5023614;28;21197;-89
2021/06/01 12:23:59;;;;;;;4.13;2.20;;;27.80;43.00;;;;;;5024605;28;20623;-88
2021/06/01 12:26:31;;;;;;;2.63;2.43;;;27.90;43.50;;;;;;5021873;28;20772;-87
2021/06/01 12:32:01;;;;;;;2.90;2.50;;;28.20;45.30;;;;;;5026157;28;20985;-88
2021/06/01 12:34:35;;;;;;;2.80;2.60;;;28.30;45.20;;;;;;5030609;28;20622;-88
2021/06/01 12:45:32;;;;;;;3.70;2.80;;;28.40;44.30;;;;;;5027008;28;21096;-90
2021/06/01 13:08:11;;;;;;;2.40;2.30;;;29.20;40.30;;;;;;5026384;28;20700;-88
2021/06/01 13:19:23;;;;;;;3.73;2.20;;;27.90;40.10;;;;;;5020947;28;20667;-88
2021/06/01 13:21:53;;;;;;;2.50;2.30;;;27.80;39.40;;;;;;5024229;28;20621;-89
2021/06/01 13:30:09;;;;;;;2.90;2.33;;;28.80;39.80;;;;;;5021169;28;20704;-89
2021/06/01 13:30:29;;;;;;;3.40;2.30;;;29.20;40.00;;;;;;5022412;28;20657;-86
2021/06/01 13:38:34;;;;;;;2.53;2.37;;;29.50;39.80;;;;;;5019488;28;20742;-87
2021/06/01 13:46:44;;;;;;;2.73;2.50;;;29.10;38.80;;;;;;5022494;28;20736;-89
2021/06/01 13:49:16;;;;;;;2.20;2.00;;;29.20;39.30;;;;;;5022351;28;20629;-87
2021/06/01 13:52:12;;;;;;;2.70;2.50;;;29.20;39.90;;;;;;5022513;28;20967;-86
2021/06/01 13:57:31;;;;;;;4.10;2.60;;;29.70;39.80;;;;;;5023444;28;21064;-86
2021/06/01 14:00:06;;;;;;;3.80;2.53;;;29.90;39.60;;;;;;5021654;28;20619;-87
2021/06/01 14:30:21;;;;;;;3.57;2.87;;;29.40;39.20;;;;;;5018703;28;20642;-87
2021/06/01 14:35:51;;;;;;;2.67;2.50;;;30.80;38.80;;;;;;5019527;28;20633;-87
2021/06/01 15:28:42;;;;;;;2.33;2.13;;;31.00;37.80;;;;;;5021897;28;20695;-88
2021/06/01 15:47:55;;;;;;;4.00;2.23;;;31.00;35.40;;;;;;5019590;28;20641;-87
2021/06/01 15:50:30;;;;;;;3.33;2.43;;;31.30;35.30;;;;;;5019546;28;20729;-88
2021/06/01 16:13:25;;;;;;;4.40;2.23;;;30.60;34.90;;;;;;5027950;28;20609;-88
2021/06/01 16:21:46;;;;;;;2.00;1.80;;;30.60;35.70;;;;;;5029572;28;20618;-88
2021/06/01 16:29:52;;;;;;;5.33;2.10;;;30.00;36.70;;;;;;5029503;28;20646;-85
2021/06/01 16:43:47;;;;;;;6.43;2.10;;;30.50;36.00;;;;;;5047266;28;20590;-88
2021/06/01 17:03:14;;;;;;;2.40;2.20;;;29.20;37.00;;;;;;5027720;28;20778;-88
2021/06/01 17:05:43;;;;;;;2.93;2.00;;;29.40;37.60;;;;;;5030982;28;20650;-87
2021/06/01 17:09:00;;;;;;;6.13;2.10;;;29.60;36.30;;;;;;5031119;28;20975;-87
2021/06/01 17:11:31;;;;;;;1.97;1.87;;;29.40;36.30;;;;;;5030577;28;20626;-86
2021/06/01 17:13:59;;;;;;;3.03;1.90;;;29.30;36.70;;;;;;5036823;28;20594;-87
2021/06/01 17:16:33;;;;;;;2.20;2.00;;;29.30;36.80;;;;;;5044097;28;20673;-88
2021/06/01 17:19:41;;;;;;;1.97;1.87;;;29.40;37.00;;;;;;5038587;28;20621;-88
2021/06/01 17:22:37;;;;;;;2.30;2.10;;;29.50;36.00;;;;;;5041522;28;20630;-87
2021/06/01 17:36:00;;;;;;;2.50;2.30;;;28.60;38.30;;;;;;5024772;28;21183;-87
2021/06/01 17:38:28;;;;;;;2.40;2.30;;;29.00;38.40;;;;;;5022354;28;20630;-87
2021/06/01 17:40:58;;;;;;;2.60;2.40;;;29.10;37.80;;;;;;5016821;28;20746;-87
2021/06/01 17:43:30;;;;;;;3.70;2.37;;;28.90;37.60;;;;;;5023866;28;20626;-87
2021/06/01 17:45:57;;;;;;;3.73;2.33;;;28.40;37.50;;;;;;5019388;28;20619;-87
2021/06/01 17:48:36;;;;;;;2.70;2.50;;;28.10;37.30;;;;;;5023236;28;20638;-88
2021/06/01 17:51:07;;;;;;;2.73;2.50;;;28.10;37.40;;;;;;5010926;28;20647;-87
2021/06/01 17:53:41;;;;;;;2.80;2.57;;;28.00;38.40;;;;;;5012540;28;20630;-88